Time;durP1;ratioP1;P1;durP2;ratioP2;P2;SDS_P1;SDS_P2;PMS_P1;PMS_P2;Temp;Humidity;BMP_temperature;BMP_pressure;BME280_temperature;BME280_humidity;BME280_pressure;Samples;Min_cycle;Max_cycle;Signal;HPM_P1;HPM_P2
2023/05/05 00:01:08;;;;;;;3.95;2.95;;;;;;;;;;4981045;28;20286;-81
2023/05/05 00:03:36;;;;;;;6.05;3.45;;;;;;;;;;4981017;28;20113;-80
2023/05/05 00:06:02;;;;;;;7.80;3.05;;;;;;;;;;4978449;28;20029;-80
2023/05/05 00:08:27;;;;;;;6.45;3.33;;;;;;;;;;4978616;28;20023;-82
2023/05/05 00:10:53;;;;;;;6.25;3.53;;;;;;;;;;4973347;28;20109;-81
2023/05/05 00:13:19;;;;;;;6.57;3.70;;;;;;;;;;4980583;28;20034;-82
2023/05/05 00:15:47;;;;;;;6.50;3.30;;;;;;;;;;4975541;28;20057;-80
2023/05/05 00:18:15;;;;;;;4.13;3.45;;;;;;;;;;4985566;28;20042;-82
2023/05/05 00:20:41;;;;;;;6.50;3.45;;;;;;;;;;4984854;28;20022;-81
2023/05/05 00:23:06;;;;;;;7.68;3.22;;;;;;;;;;4978877;28;20479;-81
2023/05/05 00:25:31;;;;;;;4.25;3.08;;;;;;;;;;4982153;28;20109;-82
2023/05/05 00:27:57;;;;;;;5.63;3.55;;;;;;;;;;4980113;28;20027;-81
2023/05/05 00:30:23;;;;;;;6.82;3.50;;;;;;;;;;4980948;28;20038;-80
2023/05/05 00:32:49;;;;;;;5.15;3.30;;;;;;;;;;4983843;28;20058;-81
2023/05/05 00:35:15;;;;;;;6.43;3.45;;;;;;;;;;4982448;28;20467;-82
2023/05/05 00:37:41;;;;;;;7.10;3.63;;;;;;;;;;4976645;28;20099;-82
2023/05/05 00:40:07;;;;;;;7.45;3.70;;;;;;;;;;4977940;28;20031;-81
2023/05/05 00:42:59;;;;;;;4.88;3.53;;;;;;;;;;4974628;28;20474;-81
2023/05/05 00:45:24;;;;;;;5.05;3.55;;;;;;;;;;4976335;28;20447;-81
2023/05/05 00:47:53;;;;;;;5.60;3.53;;;;;;;;;;4975368;28;20562;-82
2023/05/05 00:50:30;;;;;;;9.48;3.55;;;;;;;;;;4976487;28;20041;-80
2023/05/05 00:52:59;;;;;;;5.88;3.92;;;;;;;;;;4973474;28;20030;-81
2023/05/05 00:55:25;;;;;;;7.90;3.70;;;;;;;;;;4975025;28;20173;-81
2023/05/05 00:57:50;;;;;;;3.85;3.20;;;;;;;;;;4978078;28;21961;-81
2023/05/05 01:00:16;;;;;;;4.57;3.20;;;;;;;;;;4977810;28;20041;-80
2023/05/05 01:02:43;;;;;;;4.45;3.53;;;;;;;;;;4974501;28;20106;-82
2023/05/05 01:05:09;;;;;;;11.13;3.70;;;;;;;;;;4976361;28;20109;-82
2023/05/05 01:08:01;;;;;;;8.02;3.53;;;;;;;;;;4971455;28;20055;-81
2023/05/05 01:10:45;;;;;;;;;;;;;;;;;;4939831;28;20039;-82
2023/05/05 01:13:38;;;;;;;8.95;3.50;;;;;;;;;;4978664;28;19914;-81
2023/05/05 01:16:15;;;;;;;4.55;3.53;;;;;;;;;;4964214;28;20046;-81
2023/05/05 01:19:02;;;;;;;6.07;3.78;;;;;;;;;;4978758;28;20120;-82
2023/05/05 01:21:40;;;;;;;7.30;4.40;;;;;;;;;;4984222;28;20088;-81
2023/05/05 01:24:43;;;;;;;8.45;3.58;;;;;;;;;;4972993;28;20108;-81
2023/05/05 01:27:30;;;;;;;7.78;3.65;;;;;;;;;;4979976;28;20037;-80
2023/05/05 01:30:32;;;;;;;5.57;3.60;;;;;;;;;;4985244;28;20085;-79
2023/05/05 01:33:03;;;;;;;6.07;3.80;;;;;;;;;;4978846;28;20142;-80
2023/05/05 01:35:32;;;;;;;7.82;4.00;;;;;;;;;;4983485;28;20093;-81
2023/05/05 01:38:12;;;;;;;4.15;3.40;;;;;;;;;;4977932;28;20098;-81
2023/05/05 01:41:09;;;;;;;5.60;3.97;;;;;;;;;;4986023;28;20081;-81
2023/05/05 01:43:36;;;;;;;4.13;3.63;;;;;;;;;;4977541;28;20538;-81
2023/05/05 01:46:03;;;;;;;5.32;3.53;;;;;;;;;;4979203;28;20081;-80
2023/05/05 01:48:29;;;;;;;6.22;4.13;;;;;;;;;;4978696;28;20025;-81
2023/05/05 01:50:56;;;;;;;5.85;3.90;;;;;;;;;;4979757;28;20030;-80
2023/05/05 01:53:23;;;;;;;9.15;4.10;;;;;;;;;;4975637;28;20030;-81
2023/05/05 01:55:50;;;;;;;7.63;4.30;;;;;;;;;;4977518;28;20022;-81
2023/05/05 01:58:16;;;;;;;5.57;3.70;;;;;;;;;;4972196;28;20077;-81
2023/05/05 02:00:43;;;;;;;6.93;4.03;;;;;;;;;;4975342;28;20022;-81
2023/05/05 02:03:10;;;;;;;5.95;4.05;;;;;;;;;;4975737;28;20034;-82
2023/05/05 02:05:38;;;;;;;6.88;3.92;;;;;;;;;;5001099;28;20026;-80
2023/05/05 02:08:05;;;;;;;5.90;3.78;;;;;;;;;;4980065;28;20061;-80
2023/05/05 02:10:31;;;;;;;12.23;4.00;;;;;;;;;;4977193;28;20054;-80
2023/05/05 02:12:59;;;;;;;7.28;3.83;;;;;;;;;;4976034;28;20030;-81
2023/05/05 02:15:26;;;;;;;6.22;4.38;;;;;;;;;;4979156;28;20023;-81
2023/05/05 02:17:52;;;;;;;6.90;3.90;;;;;;;;;;4978013;28;20094;-81
2023/05/05 02:20:18;;;;;;;7.18;4.03;;;;;;;;;;4993526;28;20030;-81
2023/05/05 02:22:44;;;;;;;5.18;3.83;;;;;;;;;;4977362;28;20483;-80
2023/05/05 02:25:10;;;;;;;7.47;4.50;;;;;;;;;;4992802;28;20037;-81
2023/05/05 02:27:37;;;;;;;9.20;4.18;;;;;;;;;;4987380;28;20198;-81
2023/05/05 02:30:08;;;;;;;6.38;3.95;;;;;;;;;;4984063;28;20019;-81
2023/05/05 02:32:38;;;;;;;6.22;4.45;;;;;;;;;;4981445;28;20031;-80
2023/05/05 02:35:11;;;;;;;6.43;4.15;;;;;;;;;;4983708;28;20037;-81
2023/05/05 02:37:37;;;;;;;6.10;4.03;;;;;;;;;;4976492;28;20395;-81
2023/05/05 02:40:04;;;;;;;8.10;4.07;;;;;;;;;;4980902;28;20022;-81
2023/05/05 02:42:37;;;;;;;9.98;4.03;;;;;;;;;;4982942;28;20054;-81
2023/05/05 02:45:22;;;;;;;7.80;4.00;;;;;;;;;;4994569;28;20125;-81
2023/05/05 02:47:47;;;;;;;8.85;4.07;;;;;;;;;;4978393;28;20046;-81
2023/05/05 02:50:14;;;;;;;5.80;3.45;;;;;;;;;;4976798;28;20089;-82
2023/05/05 02:52:40;;;;;;;4.88;3.72;;;;;;;;;;4992897;28;20027;-81
2023/05/05 02:55:06;;;;;;;3.67;3.08;;;;;;;;;;4977731;28;20026;-80
2023/05/05 02:57:38;;;;;;;6.18;4.13;;;;;;;;;;4990699;28;20007;-80
2023/05/05 03:00:17;;;;;;;5.20;3.50;;;;;;;;;;4997716;28;20044;-80
2023/05/05 03:02:52;;;;;;;3.70;3.15;;;;;;;;;;4997501;28;20069;-81
2023/05/05 03:05:23;;;;;;;4.95;2.97;;;;;;;;;;4981842;28;20491;-80
2023/05/05 03:08:08;;;;;;;3.75;2.90;;;;;;;;;;4992098;28;20491;-81
2023/05/05 03:10:45;;;;;;;4.07;3.10;;;;;;;;;;4976387;28;20371;-81
2023/05/05 03:13:12;;;;;;;7.30;2.88;;;;;;;;;;4962866;28;20027;-81
2023/05/05 03:15:48;;;;;;;5.85;3.10;;;;;;;;;;4992099;28;20084;-80
2023/05/05 03:18:16;;;;;;;4.43;3.05;;;;;;;;;;4981240;28;20034;-80
2023/05/05 03:20:42;;;;;;;4.88;2.75;;;;;;;;;;4983327;28;20022;-81
2023/05/05 03:23:07;;;;;;;3.35;2.80;;;;;;;;;;4977807;28;20102;-81
2023/05/05 03:25:42;;;;;;;7.55;3.03;;;;;;;;;;4992341;28;20095;-81
2023/05/05 03:28:07;;;;;;;5.28;3.45;;;;;;;;;;4994770;28;20030;-80
2023/05/05 03:30:33;;;;;;;5.13;3.00;;;;;;;;;;4980816;28;20120;-81
2023/05/05 03:32:58;;;;;;;6.85;2.88;;;;;;;;;;4979174;28;20030;-80
2023/05/05 03:35:23;;;;;;;4.05;2.92;;;;;;;;;;4977975;28;20038;-81
2023/05/05 03:37:49;;;;;;;5.95;3.20;;;;;;;;;;4975222;28;20033;-81
2023/05/05 03:40:14;;;;;;;3.53;2.50;;;;;;;;;;4966121;28;20030;-81
2023/05/05 03:42:40;;;;;;;3.97;2.45;;;;;;;;;;4974241;28;20031;-80
2023/05/05 03:45:05;;;;;;;9.43;2.78;;;;;;;;;;4975084;28;20364;-81
2023/05/05 03:47:31;;;;;;;4.88;3.00;;;;;;;;;;4977543;28;20744;-80
2023/05/05 03:49:56;;;;;;;3.63;2.60;;;;;;;;;;4983617;28;20487;-81
2023/05/05 03:52:21;;;;;;;4.35;2.80;;;;;;;;;;4976855;28;20424;-81
2023/05/05 03:54:47;;;;;;;5.05;3.10;;;;;;;;;;4977200;28;20033;-81
2023/05/05 03:57:12;;;;;;;3.25;2.83;;;;;;;;;;4973066;28;20494;-81
2023/05/05 03:59:37;;;;;;;4.45;2.90;;;;;;;;;;4985584;28;20027;-81
2023/05/05 04:02:03;;;;;;;5.55;2.90;;;;;;;;;;4973564;28;20033;-81
2023/05/05 04:04:28;;;;;;;4.38;2.83;;;;;;;;;;4975681;28;20023;-80
2023/05/05 04:06:53;;;;;;;3.53;2.40;;;;;;;;;;4976488;28;20034;-80
2023/05/05 04:09:19;;;;;;;5.07;3.10;;;;;;;;;;4976244;28;20022;-82
2023/05/05 04:11:44;;;;;;;3.53;2.55;;;;;;;;;;4985402;28;20464;-81
2023/05/05 04:14:09;;;;;;;8.00;3.08;;;;;;;;;;4979245;28;20501;-82
2023/05/05 04:16:35;;;;;;;5.03;2.50;;;;;;;;;;4981047;28;20555;-81
2023/05/05 04:19:00;;;;;;;4.20;3.10;;;;;;;;;;4969833;28;20126;-82
2023/05/05 04:21:25;;;;;;;3.08;2.60;;;;;;;;;;4973458;28;20142;-81
2023/05/05 04:23:51;;;;;;;3.42;2.47;;;;;;;;;;4976183;28;20727;-80
2023/05/05 04:26:16;;;;;;;3.25;2.70;;;;;;;;;;4981454;28;20027;-81
2023/05/05 04:28:42;;;;;;;2.97;2.67;;;;;;;;;;4977256;28;20089;-81
2023/05/05 04:31:07;;;;;;;2.97;2.50;;;;;;;;;;4975812;28;20027;-80
2023/05/05 04:33:32;;;;;;;3.03;2.58;;;;;;;;;;4976112;28;20050;-81
2023/05/05 04:35:58;;;;;;;4.10;2.70;;;;;;;;;;4988599;28;20034;-81
2023/05/05 04:38:23;;;;;;;5.15;2.80;;;;;;;;;;4974787;28;20026;-82
2023/05/05 04:40:48;;;;;;;4.38;2.70;;;;;;;;;;4979670;28;20033;-80
2023/05/05 04:43:14;;;;;;;3.13;2.47;;;;;;;;;;4981094;28;20957;-81
2023/05/05 04:45:39;;;;;;;4.03;2.67;;;;;;;;;;4981692;28;20019;-81
2023/05/05 04:48:05;;;;;;;5.05;3.13;;;;;;;;;;4980201;28;20022;-81
2023/05/05 04:50:31;;;;;;;3.33;2.40;;;;;;;;;;4980275;28;20026;-81
2023/05/05 04:52:56;;;;;;;3.30;2.45;;;;;;;;;;4980811;28;20033;-80
2023/05/05 04:55:21;;;;;;;4.22;2.40;;;;;;;;;;4978954;28;20065;-81
2023/05/05 04:57:47;;;;;;;2.80;2.25;;;;;;;;;;4977313;28;20042;-81
2023/05/05 05:00:12;;;;;;;2.50;2.30;;;;;;;;;;4972833;28;20031;-81
2023/05/05 05:02:38;;;;;;;2.85;2.30;;;;;;;;;;4985480;28;20027;-80
2023/05/05 05:05:03;;;;;;;3.35;2.47;;;;;;;;;;4969971;28;20038;-81
2023/05/05 05:07:29;;;;;;;2.42;2.10;;;;;;;;;;4975805;28;20098;-80
2023/05/05 05:09:54;;;;;;;4.15;2.53;;;;;;;;;;4977785;28;20023;-80
2023/05/05 05:12:20;;;;;;;5.28;2.40;;;;;;;;;;4978427;28;20035;-83
2023/05/05 05:14:45;;;;;;;2.55;2.05;;;;;;;;;;4980023;28;20471;-83
2023/05/05 05:17:10;;;;;;;3.35;2.30;;;;;;;;;;4978211;28;20395;-83
2023/05/05 05:19:36;;;;;;;2.92;2.42;;;;;;;;;;4978894;28;20030;-81
2023/05/05 05:22:01;;;;;;;3.58;2.80;;;;;;;;;;4978266;28;20511;-82
2023/05/05 05:24:26;;;;;;;3.33;2.10;;;;;;;;;;4981638;28;20022;-81
2023/05/05 05:26:52;;;;;;;5.43;2.45;;;;;;;;;;4983643;28;20031;-82
2023/05/05 05:29:19;;;;;;;3.50;2.65;;;;;;;;;;4979400;28;21646;-81
2023/05/05 05:31:44;;;;;;;2.90;2.35;;;;;;;;;;4979010;28;20058;-81
2023/05/05 05:34:09;;;;;;;3.00;2.30;;;;;;;;;;4980169;28;20023;-81
2023/05/05 05:36:35;;;;;;;4.07;2.55;;;;;;;;;;4992636;28;20043;-81
2023/05/05 05:39:00;;;;;;;3.60;2.30;;;;;;;;;;4990043;28;20030;-81
2023/05/05 05:41:25;;;;;;;8.48;2.63;;;;;;;;;;4987210;28;20026;-81
2023/05/05 05:43:51;;;;;;;4.07;2.05;;;;;;;;;;4981700;28;20377;-81
2023/05/05 05:46:17;;;;;;;3.22;2.15;;;;;;;;;;4980736;28;20047;-81
2023/05/05 05:48:42;;;;;;;4.75;2.08;;;;;;;;;;4998819;28;20074;-81
2023/05/05 05:51:07;;;;;;;2.63;2.22;;;;;;;;;;5003557;28;20027;-81
2023/05/05 05:53:33;;;;;;;5.43;2.20;;;;;;;;;;4995842;28;20034;-80
2023/05/05 05:56:00;;;;;;;4.13;2.30;;;;;;;;;;4986253;28;20038;-80
2023/05/05 05:58:25;;;;;;;3.03;1.95;;;;;;;;;;4980402;28;20130;-80
2023/05/05 06:00:50;;;;;;;5.13;2.50;;;;;;;;;;4979313;28;20057;-83
2023/05/05 06:03:16;;;;;;;2.38;2.10;;;;;;;;;;4982514;28;20105;-82
2023/05/05 06:08:46;;;;;;;3.67;2.05;;;;;;;;;;4984733;28;20590;-81
2023/05/05 06:11:11;;;;;;;9.52;2.28;;;;;;;;;;4983109;28;20030;-81
2023/05/05 06:13:36;;;;;;;2.05;1.85;;;;;;;;;;4979699;28;20030;-84
2023/05/05 06:16:02;;;;;;;6.43;2.22;;;;;;;;;;4981502;28;20026;-83
2023/05/05 06:18:27;;;;;;;4.05;2.03;;;;;;;;;;4978594;28;20026;-82
2023/05/05 06:20:52;;;;;;;3.42;2.05;;;;;;;;;;4980090;28;21013;-82
2023/05/05 06:23:18;;;;;;;4.55;2.95;;;;;;;;;;4975967;28;20038;-82
2023/05/05 06:25:43;;;;;;;2.92;1.98;;;;;;;;;;4987582;28;20069;-81
2023/05/05 06:28:08;;;;;;;2.45;2.00;;;;;;;;;;4975539;28;20061;-81
2023/05/05 06:30:34;;;;;;;2.78;2.10;;;;;;;;;;4973918;28;20073;-82
2023/05/05 06:32:59;;;;;;;2.72;2.20;;;;;;;;;;4974292;28;20717;-80
2023/05/05 06:35:25;;;;;;;2.60;1.70;;;;;;;;;;4985054;28;20057;-79
2023/05/05 06:37:50;;;;;;;1.92;1.60;;;;;;;;;;4979243;28;20039;-79
2023/05/05 06:40:15;;;;;;;3.70;1.80;;;;;;;;;;4982523;28;20031;-80
2023/05/05 06:42:40;;;;;;;2.13;1.73;;;;;;;;;;4961893;28;20348;-80
2023/05/05 06:45:06;;;;;;;3.28;2.03;;;;;;;;;;4976015;28;20038;-81
2023/05/05 06:47:32;;;;;;;7.00;2.20;;;;;;;;;;4977672;28;20035;-79
2023/05/05 06:49:58;;;;;;;2.22;1.90;;;;;;;;;;4978656;28;20475;-79
2023/05/05 06:52:24;;;;;;;2.67;1.85;;;;;;;;;;4974775;28;20030;-80
2023/05/05 06:54:50;;;;;;;2.17;1.80;;;;;;;;;;4975852;28;20455;-80
2023/05/05 06:57:15;;;;;;;1.83;1.70;;;;;;;;;;4987058;28;20168;-80
2023/05/05 06:59:40;;;;;;;2.50;2.03;;;;;;;;;;4982657;28;20026;-80
2023/05/05 07:02:06;;;;;;;2.65;1.83;;;;;;;;;;4978946;28;20022;-81
2023/05/05 07:04:31;;;;;;;6.20;2.22;;;;;;;;;;4980621;28;20033;-80
2023/05/05 07:06:57;;;;;;;2.45;1.88;;;;;;;;;;4987569;28;20135;-81
2023/05/05 07:09:23;;;;;;;3.13;1.65;;;;;;;;;;4983539;28;20742;-80
2023/05/05 07:11:48;;;;;;;3.00;1.73;;;;;;;;;;4979198;28;20539;-80
2023/05/05 07:14:13;;;;;;;2.85;1.80;;;;;;;;;;4976374;28;20030;-81
2023/05/05 07:16:39;;;;;;;4.20;1.90;;;;;;;;;;4979768;28;20097;-81
2023/05/05 07:19:05;;;;;;;2.47;1.95;;;;;;;;;;4979587;28;20031;-79
2023/05/05 07:21:32;;;;;;;4.00;1.95;;;;;;;;;;4978255;28;20073;-79
2023/05/05 07:23:57;;;;;;;1.55;1.45;;;;;;;;;;4964514;28;20037;-82
2023/05/05 07:26:23;;;;;;;3.22;1.83;;;;;;;;;;4993749;28;20031;-80
2023/05/05 07:28:50;;;;;;;3.15;1.80;;;;;;;;;;4976655;28;20015;-81
2023/05/05 07:31:16;;;;;;;3.33;1.90;;;;;;;;;;4976643;28;20034;-82
2023/05/05 07:33:41;;;;;;;3.50;1.88;;;;;;;;;;4976615;28;20018;-82
2023/05/05 07:36:07;;;;;;;2.28;1.48;;;;;;;;;;4976242;28;20034;-81
2023/05/05 07:38:32;;;;;;;3.05;1.90;;;;;;;;;;4975218;28;20094;-82
2023/05/05 07:40:58;;;;;;;3.88;1.83;;;;;;;;;;4975290;28;20026;-81
2023/05/05 07:43:23;;;;;;;2.63;1.40;;;;;;;;;;4977100;28;20026;-81
2023/05/05 07:45:48;;;;;;;4.05;1.50;;;;;;;;;;4979987;28;20074;-81
2023/05/05 07:48:14;;;;;;;1.63;1.42;;;;;;;;;;4978616;28;20035;-81
2023/05/05 07:50:40;;;;;;;3.03;1.40;;;;;;;;;;4976028;28;20033;-81
2023/05/05 07:53:05;;;;;;;2.05;1.63;;;;;;;;;;4986743;28;20018;-80
2023/05/05 07:55:30;;;;;;;2.42;1.80;;;;;;;;;;4995523;28;20026;-80
2023/05/05 07:57:55;;;;;;;1.85;1.58;;;;;;;;;;5001066;28;20026;-81
2023/05/05 08:00:21;;;;;;;6.38;1.92;;;;;;;;;;4976232;28;20038;-80
2023/05/05 08:02:46;;;;;;;2.08;1.50;;;;;;;;;;4977591;28;20022;-80
2023/05/05 08:05:12;;;;;;;5.03;1.77;;;;;;;;;;4973604;28;20026;-81
2023/05/05 08:07:39;;;;;;;3.70;2.13;;;;;;;;;;4981254;28;20033;-80
2023/05/05 08:10:07;;;;;;;2.92;1.52;;;;;;;;;;4984789;28;20098;-80
2023/05/05 08:12:32;;;;;;;4.60;1.65;;;;;;;;;;4979492;28;20085;-81
2023/05/05 08:14:58;;;;;;;3.15;1.90;;;;;;;;;;4988925;28;20030;-80
2023/05/05 08:17:25;;;;;;;4.75;1.70;;;;;;;;;;4986214;28;20045;-80
2023/05/05 08:19:51;;;;;;;9.07;1.75;;;;;;;;;;4989146;28;20040;-80
2023/05/05 08:22:17;;;;;;;2.65;1.60;;;;;;;;;;4988204;28;20594;-80
2023/05/05 08:24:42;;;;;;;2.28;1.75;;;;;;;;;;4989213;28;20062;-80
2023/05/05 08:27:07;;;;;;;2.78;1.85;;;;;;;;;;4989181;28;20081;-80
2023/05/05 08:29:33;;;;;;;3.70;1.60;;;;;;;;;;4987400;28;20311;-81
2023/05/05 08:31:58;;;;;;;5.45;2.10;;;;;;;;;;4970757;28;20035;-81
2023/05/05 08:34:23;;;;;;;3.80;1.95;;;;;;;;;;4983134;28;20031;-80
2023/05/05 08:36:49;;;;;;;4.03;1.77;;;;;;;;;;4984671;28;20165;-82
2023/05/05 08:39:15;;;;;;;4.82;2.00;;;;;;;;;;4978027;28;20034;-81
2023/05/05 08:41:40;;;;;;;5.25;1.85;;;;;;;;;;4977295;28;20034;-82
2023/05/05 08:44:07;;;;;;;6.03;2.03;;;;;;;;;;4978190;28;20094;-84
2023/05/05 08:46:34;;;;;;;6.50;2.40;;;;;;;;;;4980042;28;20039;-84
2023/05/05 08:49:02;;;;;;;5.93;2.63;;;;;;;;;;4995688;28;20053;-84
2023/05/05 08:51:43;;;;;;;3.65;1.83;;;;;;;;;;4992374;28;20023;-83
2023/05/05 08:54:15;;;;;;;8.05;2.33;;;;;;;;;;4974645;28;20023;-83
2023/05/05 08:56:41;;;;;;;3.97;1.70;;;;;;;;;;4981770;28;20022;-85
2023/05/05 08:59:08;;;;;;;3.22;2.22;;;;;;;;;;4978403;28;20596;-84
2023/05/05 09:01:34;;;;;;;5.38;1.98;;;;;;;;;;4979215;28;20023;-83
2023/05/05 09:04:02;;;;;;;4.18;2.50;;;;;;;;;;4980103;28;20030;-84
2023/05/05 09:06:30;;;;;;;4.57;2.10;;;;;;;;;;4981517;28;20055;-84
2023/05/05 09:08:56;;;;;;;4.70;2.30;;;;;;;;;;4977452;28;20010;-83
2023/05/05 09:11:22;;;;;;;6.38;2.05;;;;;;;;;;4982894;28;20034;-84
2023/05/05 09:13:48;;;;;;;9.05;2.88;;;;;;;;;;4979406;28;20091;-82
2023/05/05 09:16:13;;;;;;;4.45;2.00;;;;;;;;;;4978724;28;20113;-83
2023/05/05 09:18:41;;;;;;;2.05;1.70;;;;;;;;;;4978174;28;20466;-83
2023/05/05 09:21:23;;;;;;;2.05;1.63;;;;;;;;;;4989649;28;20023;-83
2023/05/05 09:24:10;;;;;;;2.42;1.33;;;;;;;;;;4978912;28;20109;-83
2023/05/05 09:26:42;;;;;;;5.22;1.67;;;;;;;;;;4979759;28;20029;-83
2023/05/05 09:29:07;;;;;;;3.05;1.90;;;;;;;;;;4987756;28;20029;-82
2023/05/05 09:31:35;;;;;;;8.40;2.38;;;;;;;;;;4978069;28;20062;-83
2023/05/05 09:34:11;;;;;;;2.33;1.65;;;;;;;;;;4972184;28;20026;-82
2023/05/05 09:36:46;;;;;;;2.40;1.80;;;;;;;;;;4973815;28;20034;-83
2023/05/05 09:39:12;;;;;;;3.20;1.90;;;;;;;;;;4980716;28;20027;-83
2023/05/05 09:41:43;;;;;;;3.42;1.95;;;;;;;;;;4982473;28;20053;-84
2023/05/05 09:44:09;;;;;;;4.55;2.10;;;;;;;;;;4993163;28;20027;-83
2023/05/05 09:46:34;;;;;;;2.22;1.90;;;;;;;;;;4975842;28;20034;-82
2023/05/05 09:49:17;;;;;;;4.25;2.13;;;;;;;;;;4980361;28;20369;-83
2023/05/05 09:51:46;;;;;;;2.10;1.67;;;;;;;;;;4978256;28;20022;-84
2023/05/05 09:54:26;;;;;;;3.08;1.90;;;;;;;;;;4980647;28;20022;-83
2023/05/05 09:56:52;;;;;;;4.53;2.40;;;;;;;;;;4986296;28;20037;-83
2023/05/05 09:59:18;;;;;;;3.60;2.10;;;;;;;;;;4978814;28;20159;-83
2023/05/05 10:01:43;;;;;;;2.50;1.75;;;;;;;;;;4979057;28;20510;-84
2023/05/05 10:04:29;;;;;;;2.70;1.65;;;;;;;;;;4981863;28;20101;-82
2023/05/05 10:06:55;;;;;;;4.80;1.75;;;;;;;;;;4956179;28;20137;-84
2023/05/05 10:09:22;;;;;;;2.38;1.52;;;;;;;;;;4975942;28;20054;-82
2023/05/05 10:11:48;;;;;;;6.18;1.88;;;;;;;;;;4974763;28;20038;-83
2023/05/05 10:14:14;;;;;;;2.00;1.42;;;;;;;;;;4978300;28;20034;-81
2023/05/05 10:16:46;;;;;;;2.67;1.17;;;;;;;;;;4974911;28;20026;-83
2023/05/05 10:19:14;;;;;;;3.17;1.83;;;;;;;;;;4975462;28;20129;-83
2023/05/05 10:21:45;;;;;;;4.65;1.67;;;;;;;;;;4978876;28;20471;-83
2023/05/05 10:24:29;;;;;;;2.70;1.70;;;;;;;;;;4977542;28;20031;-82
2023/05/05 10:26:57;;;;;;;8.55;1.90;;;;;;;;;;4980536;28;20034;-82
2023/05/05 10:29:30;;;;;;;3.75;1.70;;;;;;;;;;4983492;28;20022;-82
2023/05/05 10:32:02;;;;;;;4.78;1.70;;;;;;;;;;4985783;28;20041;-80
2023/05/05 10:34:44;;;;;;;3.63;1.85;;;;;;;;;;4990593;28;20065;-82
2023/05/05 10:37:10;;;;;;;2.10;1.63;;;;;;;;;;4999280;28;20078;-83
2023/05/05 10:39:36;;;;;;;2.83;1.50;;;;;;;;;;4985710;28;20054;-81
2023/05/05 10:42:02;;;;;;;2.28;1.45;;;;;;;;;;4980747;28;20489;-82
2023/05/05 10:44:32;;;;;;;2.90;1.45;;;;;;;;;;4979922;28;20027;-82
2023/05/05 10:46:58;;;;;;;2.00;1.60;;;;;;;;;;4973682;28;20113;-85
2023/05/05 10:50:01;;;;;;;3.40;1.55;;;;;;;;;;4988628;28;20137;-83
2023/05/05 10:52:46;;;;;;;4.57;1.40;;;;;;;;;;4993766;28;20023;-84
2023/05/05 10:55:34;;;;;;;5.18;2.13;;;;;;;;;;4987457;28;21072;-83
2023/05/05 10:57:59;;;;;;;3.63;1.40;;;;;;;;;;4981290;28;20045;-83
2023/05/05 11:00:51;;;;;;;3.00;1.40;;;;;;;;;;4977758;28;20027;-83
2023/05/05 11:03:16;;;;;;;3.33;1.75;;;;;;;;;;4974031;28;20499;-87
2023/05/05 11:06:04;;;;;;;1.90;1.40;;;;;;;;;;4980756;28;20110;-86
2023/05/05 11:08:33;;;;;;;3.85;1.50;;;;;;;;;;4987896;28;20121;-87
2023/05/05 11:10:59;;;;;;;2.55;1.60;;;;;;;;;;4996765;28;20443;-86
2023/05/05 11:13:25;;;;;;;2.28;1.83;;;;;;;;;;4982823;28;20058;-86
2023/05/05 11:15:52;;;;;;;3.95;1.73;;;;;;;;;;4977633;28;20019;-86
2023/05/05 11:18:38;;;;;;;5.07;1.58;;;;;;;;;;4978513;28;20034;-86
2023/05/05 11:21:14;;;;;;;1.92;1.50;;;;;;;;;;4983242;28;20482;-86
2023/05/05 11:23:40;;;;;;;2.17;1.70;;;;;;;;;;4978375;28;20027;-86
2023/05/05 11:26:06;;;;;;;5.28;1.95;;;;;;;;;;4979768;28;20029;-87
2023/05/05 11:28:31;;;;;;;3.83;1.35;;;;;;;;;;5000082;28;20023;-86
2023/05/05 11:30:59;;;;;;;2.05;1.58;;;;;;;;;;4981841;28;20099;-86
2023/05/05 11:33:27;;;;;;;1.88;1.50;;;;;;;;;;4992360;28;20033;-86
2023/05/05 11:36:00;;;;;;;4.82;1.77;;;;;;;;;;4975407;28;20027;-86
2023/05/05 11:38:37;;;;;;;4.75;1.60;;;;;;;;;;4989350;28;20034;-85
2023/05/05 11:41:11;;;;;;;6.00;2.00;;;;;;;;;;4979274;28;20031;-86
2023/05/05 11:43:37;;;;;;;1.80;1.50;;;;;;;;;;4978154;28;20053;-87
2023/05/05 11:46:13;;;;;;;1.83;1.38;;;;;;;;;;4963829;28;20026;-86
2023/05/05 11:48:45;;;;;;;5.15;1.27;;;;;;;;;;4983683;28;20064;-86
2023/05/05 11:51:12;;;;;;;1.77;1.13;;;;;;;;;;4991764;28;20030;-86
2023/05/05 11:53:44;;;;;;;1.33;1.23;;;;;;;;;;4981983;28;20022;-85
2023/05/05 11:56:11;;;;;;;2.03;1.60;;;;;;;;;;4972145;28;20077;-85
2023/05/05 11:58:37;;;;;;;1.92;0.98;;;;;;;;;;4983034;28;20034;-85
2023/05/05 12:01:06;;;;;;;1.33;0.70;;;;;;;;;;4981572;28;20027;-85
2023/05/05 12:03:35;;;;;;;2.95;1.50;;;;;;;;;;4977267;28;20022;-85
2023/05/05 12:06:02;;;;;;;1.75;0.90;;;;;;;;;;4988201;28;20084;-85
2023/05/05 12:08:27;;;;;;;2.72;1.13;;;;;;;;;;4988712;28;20019;-85
2023/05/05 12:11:04;;;;;;;2.38;1.10;;;;;;;;;;4980035;28;20375;-86
2023/05/05 12:13:29;;;;;;;1.00;0.98;;;;;;;;;;4980301;28;20026;-85
2023/05/05 12:15:55;;;;;;;1.08;0.93;;;;;;;;;;4972373;28;20082;-86
2023/05/05 12:18:21;;;;;;;2.53;1.10;;;;;;;;;;4979026;28;20034;-87
2023/05/05 12:20:46;;;;;;;8.88;1.40;;;;;;;;;;4968375;28;20026;-87
2023/05/05 12:23:15;;;;;;;1.15;1.00;;;;;;;;;;4972284;28;20050;-87
2023/05/05 12:25:40;;;;;;;4.35;1.38;;;;;;;;;;4983252;28;20027;-88
2023/05/05 12:28:07;;;;;;;1.52;1.25;;;;;;;;;;4987615;28;20041;-88
2023/05/05 12:30:33;;;;;;;3.53;1.20;;;;;;;;;;4985070;28;20033;-87
2023/05/05 12:33:06;;;;;;;5.13;1.38;;;;;;;;;;4983600;28;20089;-87
2023/05/05 12:35:32;;;;;;;1.75;0.95;;;;;;;;;;4991478;28;20042;-87
2023/05/05 12:37:57;;;;;;;1.73;1.13;;;;;;;;;;4982973;28;20027;-87
2023/05/05 12:40:41;;;;;;;1.75;1.20;;;;;;;;;;4978425;28;20089;-87
2023/05/05 12:43:06;;;;;;;1.20;1.08;;;;;;;;;;5004529;28;20038;-87
2023/05/05 12:45:32;;;;;;;1.77;1.30;;;;;;;;;;4996592;28;20089;-87
2023/05/05 12:47:57;;;;;;;2.55;1.30;;;;;;;;;;4996853;28;20117;-88
2023/05/05 12:50:30;;;;;;;5.43;1.52;;;;;;;;;;4988460;28;20023;-86
2023/05/05 12:52:56;;;;;;;3.63;1.45;;;;;;;;;;4987845;28;20061;-85
2023/05/05 12:55:35;;;;;;;3.90;1.40;;;;;;;;;;4999641;28;20015;-86
2023/05/05 12:58:03;;;;;;;2.70;1.25;;;;;;;;;;4998263;28;20015;-85
2023/05/05 13:00:29;;;;;;;1.42;1.27;;;;;;;;;;4996134;28;20030;-86
2023/05/05 13:02:55;;;;;;;4.97;1.20;;;;;;;;;;4992317;28;20030;-86
2023/05/05 13:05:35;;;;;;;2.70;1.30;;;;;;;;;;4985656;28;20037;-87
2023/05/05 13:08:00;;;;;;;3.25;1.10;;;;;;;;;;4992751;28;20513;-87
2023/05/05 13:10:27;;;;;;;2.63;1.60;;;;;;;;;;4981616;28;20031;-86
2023/05/05 13:12:56;;;;;;;3.35;1.92;;;;;;;;;;4989574;28;20037;-86
2023/05/05 13:15:22;;;;;;;2.38;1.38;;;;;;;;;;4986830;28;20037;-86
2023/05/05 13:17:48;;;;;;;2.25;1.30;;;;;;;;;;4985730;28;20029;-86
2023/05/05 13:20:14;;;;;;;1.60;1.30;;;;;;;;;;4985763;28;20026;-86
2023/05/05 13:22:39;;;;;;;4.05;1.42;;;;;;;;;;4978854;28;20325;-86
2023/05/05 13:25:05;;;;;;;2.65;1.50;;;;;;;;;;4991530;28;21122;-86
2023/05/05 13:27:32;;;;;;;2.38;1.20;;;;;;;;;;4990394;28;20026;-85
2023/05/05 13:29:58;;;;;;;1.70;1.25;;;;;;;;;;4990325;28;20458;-86
2023/05/05 13:32:23;;;;;;;1.92;1.38;;;;;;;;;;4980084;28;20125;-85
2023/05/05 13:34:48;;;;;;;1.00;1.00;;;;;;;;;;4982253;28;20432;-87
2023/05/05 13:37:17;;;;;;;1.85;1.20;;;;;;;;;;4964696;28;20283;-88
2023/05/05 13:39:42;;;;;;;1.45;1.27;;;;;;;;;;4986974;28;20030;-86
2023/05/05 13:42:08;;;;;;;1.85;0.95;;;;;;;;;;4987538;28;20033;-87
2023/05/05 13:45:11;;;;;;;1.50;1.40;;;;;;;;;;4981478;28;20018;-87
2023/05/05 13:47:37;;;;;;;2.08;1.33;;;;;;;;;;4969195;28;20102;-86
2023/05/05 13:50:03;;;;;;;1.17;0.95;;;;;;;;;;4980146;28;20076;-86
2023/05/05 13:52:28;;;;;;;5.07;1.60;;;;;;;;;;4982962;28;20172;-87
2023/05/05 13:54:53;;;;;;;1.33;1.20;;;;;;;;;;4983393;28;20061;-87
2023/05/05 13:57:19;;;;;;;1.83;1.33;;;;;;;;;;4984749;28;20026;-86
2023/05/05 13:59:44;;;;;;;2.22;1.20;;;;;;;;;;4999790;28;20073;-87
2023/05/05 14:02:10;;;;;;;2.75;1.45;;;;;;;;;;4980344;28;20019;-86
2023/05/05 14:04:35;;;;;;;4.82;1.52;;;;;;;;;;4976616;28;20094;-86
2023/05/05 14:07:00;;;;;;;3.22;1.80;;;;;;;;;;4971955;28;20035;-86
2023/05/05 14:09:26;;;;;;;2.08;1.60;;;;;;;;;;4975652;28;20027;-87
2023/05/05 14:11:52;;;;;;;2.45;1.60;;;;;;;;;;4984837;28;20023;-86
2023/05/05 14:14:18;;;;;;;2.92;1.90;;;;;;;;;;4983507;28;20026;-86
2023/05/05 14:16:47;;;;;;;1.27;1.20;;;;;;;;;;4981866;28;20031;-86
2023/05/05 14:19:12;;;;;;;2.83;1.35;;;;;;;;;;5019404;23;20061;-86
2023/05/05 14:21:37;;;;;;;2.45;1.52;;;;;;;;;;4954450;28;20105;-86
2023/05/05 14:24:03;;;;;;;2.13;1.52;;;;;;;;;;4953591;28;20425;-86
2023/05/05 14:26:28;;;;;;;2.67;1.67;;;;;;;;;;4950791;28;20034;-86
2023/05/05 14:28:53;;;;;;;5.07;1.90;;;;;;;;;;4949173;28;20049;-85
2023/05/05 14:31:19;;;;;;;1.90;1.50;;;;;;;;;;4973081;28;20030;-87
2023/05/05 14:33:44;;;;;;;3.00;1.48;;;;;;;;;;4939903;29;20023;-86
2023/05/05 14:36:10;;;;;;;8.07;1.70;;;;;;;;;;4939686;28;20039;-86
2023/05/05 14:38:47;;;;;;;3.15;1.70;;;;;;;;;;4949540;28;20023;-86
2023/05/05 14:41:13;;;;;;;2.42;1.60;;;;;;;;;;4955283;28;20042;-85
2023/05/05 14:43:38;;;;;;;3.90;1.88;;;;;;;;;;4952442;28;20027;-86
2023/05/05 14:46:05;;;;;;;4.65;1.60;;;;;;;;;;4948110;28;20039;-86
2023/05/05 14:48:32;;;;;;;1.55;1.30;;;;;;;;;;4943534;29;20023;-87
2023/05/05 14:50:57;;;;;;;2.08;1.48;;;;;;;;;;4968818;28;20038;-86
2023/05/05 14:53:23;;;;;;;2.03;1.40;;;;;;;;;;4959668;29;20023;-86